Hilo, Hawaii
Current Conditions -  °F | °C
As of 8:18 AM on Thursday 27 Nov 2014 (Local Time) from PHTO Reporting Station
Broken Clouds Broken Clouds  
Wind Chill: 75°   Ceiling: 4400
Heat Index: 75°   Visibility: 10mi
Dew Point: 67°   Wind: 7mph
Humidity: 76%   Direction: 360°N
Pressure: 30.07"   Gusts: NA
Location:  19.72°N, 155.08°W
Report Text: PHTO 271818Z 36006KT 10SM SCT021 SCT028 BKN044 24/19 A3007 RMK AO2 T02390194 $
Loading
Personal Weather Stations






























Interactive Weather Map New forecast layout! Learn more

10-Day Weather Forecast

Advertisements
Track Severe Weather on mobile